sensor_id;sensor_type;location;lat;lon;timestamp;pressure;altitude;pressure_sealevel;temperature;humidity
72921;BME280;61064;51.654;5.476;2023-04-07T00:00:11;101473.06;;;9.13;88.65
72921;BME280;61064;51.654;5.476;2023-04-07T00:02:36;101466.75;;;9.08;88.53
72921;BME280;61064;51.654;5.476;2023-04-07T00:05:02;101481.94;;;9.15;88.85
72921;BME280;61064;51.654;5.476;2023-04-07T00:07:27;101464.84;;;9.03;88.63
72921;BME280;61064;51.654;5.476;2023-04-07T00:09:52;101463.97;;;9.04;88.87
72921;BME280;61064;51.654;5.476;2023-04-07T00:12:18;101451.47;;;8.98;88.64
72921;BME280;61064;51.654;5.476;2023-04-07T00:14:43;101411.09;;;8.72;88.77
72921;BME280;61064;51.654;5.476;2023-04-07T00:17:08;101445.13;;;8.90;88.70
72921;BME280;61064;51.654;5.476;2023-04-07T00:19:33;101489.91;;;9.15;88.87
72921;BME280;61064;51.654;5.476;2023-04-07T00:22:00;101477.25;;;9.04;88.89
72921;BME280;61064;51.654;5.476;2023-04-07T00:24:25;101497.13;;;9.21;88.92
72921;BME280;61064;51.654;5.476;2023-04-07T00:26:51;101451.34;;;8.92;88.72
72921;BME280;61064;51.654;5.476;2023-04-07T00:29:16;101506.84;;;9.21;88.85
72921;BME280;61064;51.654;5.476;2023-04-07T00:31:41;101478.16;;;9.04;88.81
72921;BME280;61064;51.654;5.476;2023-04-07T00:34:07;101472.84;;;9.04;88.67
72921;BME280;61064;51.654;5.476;2023-04-07T00:36:32;101432.41;;;8.77;88.59
72921;BME280;61064;51.654;5.476;2023-04-07T00:38:58;101465.50;;;8.91;88.52
72921;BME280;61064;51.654;5.476;2023-04-07T00:41:23;101471.78;;;8.96;88.62
72921;BME280;61064;51.654;5.476;2023-04-07T00:43:49;101444.88;;;8.81;88.57
72921;BME280;61064;51.654;5.476;2023-04-07T00:46:16;101500.19;;;9.00;88.46
72921;BME280;61064;51.654;5.476;2023-04-07T00:48:42;101440.19;;;8.68;88.14
72921;BME280;61064;51.654;5.476;2023-04-07T00:51:07;101494.78;;;8.97;88.54
72921;BME280;61064;51.654;5.476;2023-04-07T00:53:33;101496.53;;;8.95;88.24
72921;BME280;61064;51.654;5.476;2023-04-07T00:55:58;101465.16;;;8.77;88.35
72921;BME280;61064;51.654;5.476;2023-04-07T00:58:23;101471.41;;;8.81;88.30
72921;BME280;61064;51.654;5.476;2023-04-07T01:01:11;101467.75;;;8.76;88.43
72921;BME280;61064;51.654;5.476;2023-04-07T01:03:48;101461.44;;;8.71;88.37
72921;BME280;61064;51.654;5.476;2023-04-07T01:06:19;101482.94;;;8.82;88.06
72921;BME280;61064;51.654;5.476;2023-04-07T01:08:56;101479.16;;;8.72;88.35
72921;BME280;61064;51.654;5.476;2023-04-07T01:11:28;101501.59;;;8.86;88.17
72921;BME280;61064;51.654;5.476;2023-04-07T01:13:56;101489.09;;;8.81;88.33
72921;BME280;61064;51.654;5.476;2023-04-07T01:16:26;101469.31;;;8.66;88.24
72921;BME280;61064;51.654;5.476;2023-04-07T01:18:56;101445.97;;;8.52;88.22
72921;BME280;61064;51.654;5.476;2023-04-07T01:21:26;101444.09;;;8.48;88.35
72921;BME280;61064;51.654;5.476;2023-04-07T01:26:27;101497.88;;;8.78;88.48
72921;BME280;61064;51.654;5.476;2023-04-07T01:31:29;101387.38;;;8.07;87.96
72921;BME280;61064;51.654;5.476;2023-04-07T01:33:57;101495.13;;;8.73;88.25
72921;BME280;61064;51.654;5.476;2023-04-07T01:36:25;101450.97;;;8.40;88.00
72921;BME280;61064;51.654;5.476;2023-04-07T01:38:53;101466.19;;;8.48;87.94
72921;BME280;61064;51.654;5.476;2023-04-07T01:41:20;101468.78;;;8.45;87.86
72921;BME280;61064;51.654;5.476;2023-04-07T01:43:47;101477.56;;;8.43;88.13
72921;BME280;61064;51.654;5.476;2023-04-07T01:46:14;101510.84;;;8.66;88.20
72921;BME280;61064;51.654;5.476;2023-04-07T01:48:40;101512.59;;;8.65;88.12
72921;BME280;61064;51.654;5.476;2023-04-07T01:51:06;101441.66;;;8.22;88.17
72921;BME280;61064;51.654;5.476;2023-04-07T01:53:33;101491.81;;;8.48;88.07
72921;BME280;61064;51.654;5.476;2023-04-07T01:56:02;101523.03;;;8.58;88.34
72921;BME280;61064;51.654;5.476;2023-04-07T01:58:28;101481.94;;;8.41;88.17
72921;BME280;61064;51.654;5.476;2023-04-07T02:00:53;101514.25;;;8.60;87.84
72921;BME280;61064;51.654;5.476;2023-04-07T02:03:39;101523.06;;;8.59;88.24
72921;BME280;61064;51.654;5.476;2023-04-07T02:06:08;101526.59;;;8.60;88.11
72921;BME280;61064;51.654;5.476;2023-04-07T02:08:38;101528.38;;;8.59;87.95
72921;BME280;61064;51.654;5.476;2023-04-07T02:11:07;101488.91;;;8.37;87.94
72921;BME280;61064;51.654;5.476;2023-04-07T02:13:36;101504.91;;;8.40;88.06
72921;BME280;61064;51.654;5.476;2023-04-07T02:16:03;101504.91;;;8.42;88.09
72921;BME280;61064;51.654;5.476;2023-04-07T02:18:30;101463.66;;;8.18;88.21
72921;BME280;61064;51.654;5.476;2023-04-07T02:20:57;101469.06;;;8.23;88.09
72921;BME280;61064;51.654;5.476;2023-04-07T02:23:23;101497.69;;;8.36;88.06
72921;BME280;61064;51.654;5.476;2023-04-07T02:25:49;101518.34;;;8.48;88.04
72921;BME280;61064;51.654;5.476;2023-04-07T02:28:14;101503.91;;;8.37;88.55
72921;BME280;61064;51.654;5.476;2023-04-07T02:30:40;101535.41;;;8.57;88.50
72921;BME280;61064;51.654;5.476;2023-04-07T02:33:05;101461.91;;;8.19;88.16
72921;BME280;61064;51.654;5.476;2023-04-07T02:35:31;101529.09;;;8.54;88.20
72921;BME280;61064;51.654;5.476;2023-04-07T02:37:56;101498.66;;;8.38;88.36
72921;BME280;61064;51.654;5.476;2023-04-07T02:40:22;101522.78;;;8.49;88.36
72921;BME280;61064;51.654;5.476;2023-04-07T02:42:47;101488.06;;;8.38;88.15
72921;BME280;61064;51.654;5.476;2023-04-07T02:45:12;101476.38;;;8.30;88.52
72921;BME280;61064;51.654;5.476;2023-04-07T02:47:38;101491.66;;;8.42;88.14
72921;BME280;61064;51.654;5.476;2023-04-07T02:50:04;101470.94;;;8.27;88.55
72921;BME280;61064;51.654;5.476;2023-04-07T02:52:29;101482.69;;;8.37;88.10
72921;BME280;61064;51.654;5.476;2023-04-07T02:54:54;101524.06;;;8.63;88.31
72921;BME280;61064;51.654;5.476;2023-04-07T02:57:20;101488.16;;;8.41;88.49
72921;BME280;61064;51.654;5.476;2023-04-07T02:59:45;101514.09;;;8.54;88.54
72921;BME280;61064;51.654;5.476;2023-04-07T03:02:11;101498.84;;;8.46;88.24
72921;BME280;61064;51.654;5.476;2023-04-07T03:04:36;101523.84;;;8.55;88.32
72921;BME280;61064;51.654;5.476;2023-04-07T03:07:02;101534.69;;;8.64;88.30
72921;BME280;61064;51.654;5.476;2023-04-07T03:09:27;101472.03;;;8.33;88.07
72921;BME280;61064;51.654;5.476;2023-04-07T03:11:52;101516.69;;;8.53;88.12
72921;BME280;61064;51.654;5.476;2023-04-07T03:14:18;101491.75;;;8.45;88.41
72921;BME280;61064;51.654;5.476;2023-04-07T03:16:43;101480.09;;;8.38;88.43
72921;BME280;61064;51.654;5.476;2023-04-07T03:19:09;101538.22;;;8.65;88.21
72921;BME280;61064;51.654;5.476;2023-04-07T03:21:36;101532.03;;;8.64;88.16
72921;BME280;61064;51.654;5.476;2023-04-07T03:24:01;101529.25;;;8.60;88.28
72921;BME280;61064;51.654;5.476;2023-04-07T03:26:27;101498.81;;;8.44;88.28
72921;BME280;61064;51.654;5.476;2023-04-07T03:28:52;101497.91;;;8.44;88.33
72921;BME280;61064;51.654;5.476;2023-04-07T03:31:18;101491.50;;;8.34;88.20
72921;BME280;61064;51.654;5.476;2023-04-07T03:33:43;101498.75;;;8.43;88.52
72921;BME280;61064;51.654;5.476;2023-04-07T03:36:08;101451.22;;;8.16;88.38
72921;BME280;61064;51.654;5.476;2023-04-07T03:38:34;101513.88;;;8.45;88.31
72921;BME280;61064;51.654;5.476;2023-04-07T03:40:59;101510.31;;;8.45;88.34
72921;BME280;61064;51.654;5.476;2023-04-07T03:43:25;101512.06;;;8.44;88.31
72921;BME280;61064;51.654;5.476;2023-04-07T03:45:52;101543.47;;;8.62;88.19
72921;BME280;61064;51.654;5.476;2023-04-07T03:48:17;101511.25;;;8.47;88.46
72921;BME280;61064;51.654;5.476;2023-04-07T03:50:42;101471.78;;;8.26;88.38
72921;BME280;61064;51.654;5.476;2023-04-07T03:53:08;101537.22;;;8.60;88.10
72921;BME280;61064;51.654;5.476;2023-04-07T03:55:34;101515.56;;;8.43;88.48
72921;BME280;61064;51.654;5.476;2023-04-07T03:58:00;101535.41;;;8.59;88.41
72921;BME280;61064;51.654;5.476;2023-04-07T04:00:26;101534.53;;;8.58;88.15
72921;BME280;61064;51.654;5.476;2023-04-07T04:02:51;101554.88;;;8.58;88.50
72921;BME280;61064;51.654;5.476;2023-04-07T04:05:17;101533.50;;;8.53;88.49
72921;BME280;61064;51.654;5.476;2023-04-07T04:07:42;101521.81;;;8.45;88.07
72921;BME280;61064;51.654;5.476;2023-04-07T04:10:08;101521.88;;;8.47;88.37
72921;BME280;61064;51.654;5.476;2023-04-07T04:12:33;101535.41;;;8.57;88.36
72921;BME280;61064;51.654;5.476;2023-04-07T04:14:58;101532.75;;;8.57;88.34
72921;BME280;61064;51.654;5.476;2023-04-07T04:17:24;101501.19;;;8.33;88.14
72921;BME280;61064;51.654;5.476;2023-04-07T04:19:49;101538.06;;;8.57;88.34
72921;BME280;61064;51.654;5.476;2023-04-07T04:22:15;101551.31;;;8.57;88.27
72921;BME280;61064;51.654;5.476;2023-04-07T04:24:41;101526.13;;;8.40;88.22
72921;BME280;61064;51.654;5.476;2023-04-07T04:27:07;101469.72;;;8.14;88.20
72921;BME280;61064;51.654;5.476;2023-04-07T04:29:32;101546.00;;;8.57;88.55
72921;BME280;61064;51.654;5.476;2023-04-07T04:31:58;101566.34;;;8.57;88.43
72921;BME280;61064;51.654;5.476;2023-04-07T04:34:23;101537.69;;;8.44;88.28
72921;BME280;61064;51.654;5.476;2023-04-07T04:36:48;101536.88;;;8.46;88.14
72921;BME280;61064;51.654;5.476;2023-04-07T04:39:14;101503.53;;;8.23;88.35
72921;BME280;61064;51.654;5.476;2023-04-07T04:41:40;101507.88;;;8.21;88.48
72921;BME280;61064;51.654;5.476;2023-04-07T04:44:05;101519.38;;;8.21;88.41
72921;BME280;61064;51.654;5.476;2023-04-07T04:46:30;101544.63;;;8.39;88.39
72921;BME280;61064;51.654;5.476;2023-04-07T04:48:56;101549.06;;;8.40;88.56
72921;BME280;61064;51.654;5.476;2023-04-07T04:51:22;101511.25;;;8.15;88.34
72921;BME280;61064;51.654;5.476;2023-04-07T04:53:47;101494.00;;;7.97;88.29
72921;BME280;61064;51.654;5.476;2023-04-07T04:56:13;101485.94;;;7.93;88.42
72921;BME280;61064;51.654;5.476;2023-04-07T04:58:39;101576.59;;;8.45;88.32
72921;BME280;61064;51.654;5.476;2023-04-07T05:01:04;101573.97;;;8.45;88.51
72921;BME280;61064;51.654;5.476;2023-04-07T05:03:30;101572.78;;;8.33;88.51
72921;BME280;61064;51.654;5.476;2023-04-07T05:05:56;101576.56;;;8.43;88.30
72921;BME280;61064;51.654;5.476;2023-04-07T05:08:21;101567.38;;;8.30;88.38
72921;BME280;61064;51.654;5.476;2023-04-07T05:10:47;101440.13;;;7.65;88.66
72921;BME280;61064;51.654;5.476;2023-04-07T05:13:12;101578.16;;;8.37;88.45
72921;BME280;61064;51.654;5.476;2023-04-07T05:15:40;101508.03;;;7.94;88.45
72921;BME280;61064;51.654;5.476;2023-04-07T05:18:05;101565.56;;;8.29;88.50
72921;BME280;61064;51.654;5.476;2023-04-07T05:20:31;101576.22;;;8.31;88.95
72921;BME280;61064;51.654;5.476;2023-04-07T05:22:56;101587.09;;;8.40;88.55
72921;BME280;61064;51.654;5.476;2023-04-07T05:25:21;101559.16;;;8.21;88.71
72921;BME280;61064;51.654;5.476;2023-04-07T05:27:46;101577.03;;;8.28;88.63
72921;BME280;61064;51.654;5.476;2023-04-07T05:30:12;101591.41;;;8.37;88.38
72921;BME280;61064;51.654;5.476;2023-04-07T05:32:38;101548.31;;;8.12;88.71
72921;BME280;61064;51.654;5.476;2023-04-07T05:35:03;101520.56;;;8.00;88.45
72921;BME280;61064;51.654;5.476;2023-04-07T05:37:28;101550.00;;;8.10;88.49
72921;BME280;61064;51.654;5.476;2023-04-07T05:39:54;101569.63;;;8.17;88.61
72921;BME280;61064;51.654;5.476;2023-04-07T05:42:20;101578.56;;;8.20;88.62
72921;BME280;61064;51.654;5.476;2023-04-07T05:44:45;101561.38;;;8.06;88.85
72921;BME280;61064;51.654;5.476;2023-04-07T05:47:11;101611.72;;;8.36;88.98
72921;BME280;61064;51.654;5.476;2023-04-07T05:49:36;101583.06;;;8.23;88.94
72921;BME280;61064;51.654;5.476;2023-04-07T05:52:02;101562.22;;;8.05;88.92
72921;BME280;61064;51.654;5.476;2023-04-07T05:54:28;101610.84;;;8.37;89.02
72921;BME280;61064;51.654;5.476;2023-04-07T05:56:54;101586.59;;;8.23;89.06
72921;BME280;61064;51.654;5.476;2023-04-07T05:59:20;101574.09;;;8.19;88.68
72921;BME280;61064;51.654;5.476;2023-04-07T06:01:45;101609.09;;;8.38;88.89
72921;BME280;61064;51.654;5.476;2023-04-07T06:04:11;101610.84;;;8.36;89.15
72921;BME280;61064;51.654;5.476;2023-04-07T06:06:36;101547.13;;;8.03;89.16
72921;BME280;61064;51.654;5.476;2023-04-07T06:09:02;101624.25;;;8.42;89.11
72921;BME280;61064;51.654;5.476;2023-04-07T06:11:27;101598.38;;;8.33;89.18
72921;BME280;61064;51.654;5.476;2023-04-07T06:13:53;101621.75;;;8.48;89.29
72921;BME280;61064;51.654;5.476;2023-04-07T06:16:18;101583.06;;;8.23;89.22
72921;BME280;61064;51.654;5.476;2023-04-07T06:18:46;101555.25;;;8.09;88.88
72921;BME280;61064;51.654;5.476;2023-04-07T06:21:12;101634.28;;;8.52;89.16
72921;BME280;61064;51.654;5.476;2023-04-07T06:23:37;101560.72;;;8.13;89.41
72921;BME280;61064;51.654;5.476;2023-04-07T06:26:03;101605.34;;;8.29;89.46
72921;BME280;61064;51.654;5.476;2023-04-07T06:28:28;101599.34;;;8.37;89.33
72921;BME280;61064;51.654;5.476;2023-04-07T06:30:53;101618.13;;;8.44;89.25
72921;BME280;61064;51.654;5.476;2023-04-07T06:33:19;101605.56;;;8.37;89.36
72921;BME280;61064;51.654;5.476;2023-04-07T06:35:49;101637.09;;;8.59;89.19
72921;BME280;61064;51.654;5.476;2023-04-07T06:38:15;101642.47;;;8.61;89.27
72921;BME280;61064;51.654;5.476;2023-04-07T06:40:40;101580.41;;;8.23;89.21
72921;BME280;61064;51.654;5.476;2023-04-07T06:43:06;101643.38;;;8.61;89.27
72921;BME280;61064;51.654;5.476;2023-04-07T06:45:31;101612.78;;;8.43;89.33
72921;BME280;61064;51.654;5.476;2023-04-07T06:47:56;101627.28;;;8.55;89.14
72921;BME280;61064;51.654;5.476;2023-04-07T06:50:22;101518.63;;;7.94;88.90
72921;BME280;61064;51.654;5.476;2023-04-07T06:52:47;101570.81;;;8.28;89.28
72921;BME280;61064;51.654;5.476;2023-04-07T06:55:12;101652.28;;;8.65;89.25
72921;BME280;61064;51.654;5.476;2023-04-07T06:57:38;101619.25;;;8.52;89.52
72921;BME280;61064;51.654;5.476;2023-04-07T07:00:04;101653.53;;;8.77;89.07
72921;BME280;61064;51.654;5.476;2023-04-07T07:02:32;101636.59;;;8.72;89.12
72921;BME280;61064;51.654;5.476;2023-04-07T07:04:57;101608.66;;;8.54;89.21
72921;BME280;61064;51.654;5.476;2023-04-07T07:07:22;101624.88;;;8.64;89.03
72921;BME280;61064;51.654;5.476;2023-04-07T07:09:50;101636.69;;;8.77;88.98
72921;BME280;61064;51.654;5.476;2023-04-07T07:12:15;101604.22;;;8.53;88.97
72921;BME280;61064;51.654;5.476;2023-04-07T07:14:42;101664.38;;;8.87;89.07
72921;BME280;61064;51.654;5.476;2023-04-07T07:17:07;101611.69;;;8.67;88.98
72921;BME280;61064;51.654;5.476;2023-04-07T07:19:32;101637.88;;;8.88;88.88
72921;BME280;61064;51.654;5.476;2023-04-07T07:21:58;101576.88;;;8.55;88.35
72921;BME280;61064;51.654;5.476;2023-04-07T07:24:23;101636.06;;;8.87;88.60
72921;BME280;61064;51.654;5.476;2023-04-07T07:26:48;101627.09;;;8.82;88.33
72921;BME280;61064;51.654;5.476;2023-04-07T07:29:14;101675.69;;;9.12;88.45
72921;BME280;61064;51.654;5.476;2023-04-07T07:31:39;101587.44;;;8.54;88.08
72921;BME280;61064;51.654;5.476;2023-04-07T07:34:05;101658.41;;;8.95;88.19
72921;BME280;61064;51.654;5.476;2023-04-07T07:36:30;101635.19;;;8.87;87.97
72921;BME280;61064;51.654;5.476;2023-04-07T07:38:56;101663.16;;;9.08;88.26
72921;BME280;61064;51.654;5.476;2023-04-07T07:41:21;101643.41;;;8.96;88.15
72921;BME280;61064;51.654;5.476;2023-04-07T07:43:47;101663.16;;;9.07;88.02
72921;BME280;61064;51.654;5.476;2023-04-07T07:46:12;101657.72;;;9.02;87.55
72921;BME280;61064;51.654;5.476;2023-04-07T07:48:37;101678.34;;;9.14;87.53
72921;BME280;61064;51.654;5.476;2023-04-07T07:51:03;101652.41;;;9.02;87.63
72921;BME280;61064;51.654;5.476;2023-04-07T07:53:29;101669.31;;;9.06;87.31
72921;BME280;61064;51.654;5.476;2023-04-07T07:55:54;101679.28;;;9.16;87.67
72921;BME280;61064;51.654;5.476;2023-04-07T07:58:20;101673.81;;;9.10;87.38
72921;BME280;61064;51.654;5.476;2023-04-07T08:00:45;101651.53;;;9.03;87.34
72921;BME280;61064;51.654;5.476;2023-04-07T08:03:11;101684.53;;;9.13;87.27
72921;BME280;61064;51.654;5.476;2023-04-07T08:05:36;101670.22;;;9.06;86.68
72921;BME280;61064;51.654;5.476;2023-04-07T08:08:02;101660.38;;;9.02;87.14
72921;BME280;61064;51.654;5.476;2023-04-07T08:10:27;101705.25;;;9.28;86.71
72921;BME280;61064;51.654;5.476;2023-04-07T08:12:53;101707.13;;;9.32;86.70
72921;BME280;61064;51.654;5.476;2023-04-07T08:15:18;101653.22;;;9.00;86.42
72921;BME280;61064;51.654;5.476;2023-04-07T08:17:45;101717.13;;;9.42;86.42
72921;BME280;61064;51.654;5.476;2023-04-07T08:20:10;101653.19;;;8.98;86.25
72921;BME280;61064;51.654;5.476;2023-04-07T08:22:36;101686.53;;;9.22;85.96
72921;BME280;61064;51.654;5.476;2023-04-07T08:25:02;101727.03;;;9.49;86.20
72921;BME280;61064;51.654;5.476;2023-04-07T08:27:27;101634.53;;;8.95;86.09
72921;BME280;61064;51.654;5.476;2023-04-07T08:30:00;101726.34;;;9.56;85.92
72921;BME280;61064;51.654;5.476;2023-04-07T08:32:38;101735.22;;;9.56;85.76
72921;BME280;61064;51.654;5.476;2023-04-07T08:35:04;101684.97;;;9.30;85.64
72921;BME280;61064;51.654;5.476;2023-04-07T08:37:30;101690.28;;;9.31;85.60
72921;BME280;61064;51.654;5.476;2023-04-07T08:39:56;101668.03;;;9.26;85.35
72921;BME280;61064;51.654;5.476;2023-04-07T08:42:26;101716.56;;;9.55;85.45
72921;BME280;61064;51.654;5.476;2023-04-07T08:44:55;101708.59;;;9.55;85.28
72921;BME280;61064;51.654;5.476;2023-04-07T08:47:21;101713.13;;;9.59;85.31
72921;BME280;61064;51.654;5.476;2023-04-07T08:49:49;101718.63;;;9.67;85.09
72921;BME280;61064;51.654;5.476;2023-04-07T08:52:17;101692.75;;;9.58;85.03
72921;BME280;61064;51.654;5.476;2023-04-07T08:54:46;101722.38;;;9.75;84.71
72921;BME280;61064;51.654;5.476;2023-04-07T08:57:13;101750.22;;;9.92;84.71
72921;BME280;61064;51.654;5.476;2023-04-07T08:59:40;101750.34;;;9.96;84.75
72921;BME280;61064;51.654;5.476;2023-04-07T09:02:08;101705.38;;;9.68;84.61
72921;BME280;61064;51.654;5.476;2023-04-07T09:04:34;101724.34;;;9.83;84.32
72921;BME280;61064;51.654;5.476;2023-04-07T09:07:00;101760.25;;;10.02;84.21
72921;BME280;61064;51.654;5.476;2023-04-07T09:09:26;101751.34;;;10.01;84.30
72921;BME280;61064;51.654;5.476;2023-04-07T09:11:51;101705.53;;;9.76;84.36
72921;BME280;61064;51.654;5.476;2023-04-07T09:14:17;101761.25;;;10.09;84.40
72921;BME280;61064;51.654;5.476;2023-04-07T09:16:45;101713.91;;;9.92;84.29
72921;BME280;61064;51.654;5.476;2023-04-07T09:19:11;101739.06;;;10.07;84.35
72921;BME280;61064;51.654;5.476;2023-04-07T09:21:50;101740.06;;;10.12;84.39
72921;BME280;61064;51.654;5.476;2023-04-07T09:24:22;101765.41;;;10.33;84.05
72921;BME280;61064;51.654;5.476;2023-04-07T09:26:48;101745.59;;;10.21;83.83
72921;BME280;61064;51.654;5.476;2023-04-07T09:29:18;101759.19;;;10.33;83.76
72921;BME280;61064;51.654;5.476;2023-04-07T09:31:44;101758.31;;;10.34;83.36
72921;BME280;61064;51.654;5.476;2023-04-07T09:34:33;101765.31;;;10.29;83.00
72921;BME280;61064;51.654;5.476;2023-04-07T09:36:59;101754.38;;;10.17;83.30
72921;BME280;61064;51.654;5.476;2023-04-07T09:39:25;101747.25;;;10.16;83.59
72921;BME280;61064;51.654;5.476;2023-04-07T09:41:51;101727.53;;;10.06;83.72
72921;BME280;61064;51.654;5.476;2023-04-07T09:44:21;101722.25;;;10.08;83.37
72921;BME280;61064;51.654;5.476;2023-04-07T09:46:53;101762.78;;;10.35;83.22
72921;BME280;61064;51.654;5.476;2023-04-07T09:49:20;101768.16;;;10.36;83.23
72921;BME280;61064;51.654;5.476;2023-04-07T09:51:59;101762.84;;;10.36;82.91
72921;BME280;61064;51.654;5.476;2023-04-07T09:54:38;101722.25;;;10.09;82.86
72921;BME280;61064;51.654;5.476;2023-04-07T09:57:07;101765.41;;;10.33;82.56
72921;BME280;61064;51.654;5.476;2023-04-07T09:59:35;101747.41;;;10.22;82.51
72921;BME280;61064;51.654;5.476;2023-04-07T10:02:01;101750.69;;;10.12;82.80
72921;BME280;61064;51.654;5.476;2023-04-07T10:04:27;101741.88;;;10.13;82.84
72921;BME280;61064;51.654;5.476;2023-04-07T10:06:54;101776.91;;;10.32;82.67
72921;BME280;61064;51.654;5.476;2023-04-07T10:09:25;101749.84;;;10.14;82.27
72921;BME280;61064;51.654;5.476;2023-04-07T10:11:52;101744.53;;;10.14;82.27
72921;BME280;61064;51.654;5.476;2023-04-07T10:14:19;101744.53;;;10.14;82.30
72921;BME280;61064;51.654;5.476;2023-04-07T10:16:46;101729.25;;;10.04;81.80
72921;BME280;61064;51.654;5.476;2023-04-07T10:19:13;101792.09;;;10.36;82.00
72921;BME280;61064;51.654;5.476;2023-04-07T10:21:40;101749.06;;;10.17;81.94
72921;BME280;61064;51.654;5.476;2023-04-07T10:26:59;101786.09;;;10.47;81.79
72921;BME280;61064;51.654;5.476;2023-04-07T10:29:31;101793.22;;;10.49;81.84
72921;BME280;61064;51.654;5.476;2023-04-07T10:31:59;101794.13;;;10.50;81.95
72921;BME280;61064;51.654;5.476;2023-04-07T10:35:01;101794.03;;;10.45;81.38
72921;BME280;61064;51.654;5.476;2023-04-07T10:37:27;101725.53;;;9.97;81.50
72921;BME280;61064;51.654;5.476;2023-04-07T10:42:44;101803.59;;;10.37;81.84
72921;BME280;61064;51.654;5.476;2023-04-07T10:45:11;101808.91;;;10.37;81.66
72921;BME280;61064;51.654;5.476;2023-04-07T10:48:10;101780.19;;;10.21;81.66
72921;BME280;61064;51.654;5.476;2023-04-07T10:50:36;101750.47;;;10.01;81.51
72921;BME280;61064;51.654;5.476;2023-04-07T10:53:09;101788.06;;;10.16;81.24
72921;BME280;61064;51.654;5.476;2023-04-07T10:58:28;101812.94;;;10.20;81.54
72921;BME280;61064;51.654;5.476;2023-04-07T11:03:23;101772.25;;;9.86;81.49
72921;BME280;61064;51.654;5.476;2023-04-07T11:05:48;101804.53;;;10.01;81.94
72921;BME280;61064;51.654;5.476;2023-04-07T11:08:15;101680.63;;;9.33;81.88
72921;BME280;61064;51.654;5.476;2023-04-07T11:10:46;101817.22;;;10.15;82.16
72921;BME280;61064;51.654;5.476;2023-04-07T11:13:12;101710.41;;;9.56;81.98
72921;BME280;61064;51.654;5.476;2023-04-07T11:15:37;101763.50;;;9.92;82.03
72921;BME280;61064;51.654;5.476;2023-04-07T11:18:09;101684.44;;;9.44;81.83
72921;BME280;61064;51.654;5.476;2023-04-07T11:23:15;101737.47;;;9.77;81.83
72921;BME280;61064;51.654;5.476;2023-04-07T11:25:49;101817.50;;;10.25;81.98
72921;BME280;61064;51.654;5.476;2023-04-07T11:28:18;101666.38;;;9.30;81.82
72921;BME280;61064;51.654;5.476;2023-04-07T11:31:10;101606.34;;;9.00;81.61
72921;BME280;61064;51.654;5.476;2023-04-07T11:33:58;101820.25;;;10.28;81.53
72921;BME280;61064;51.654;5.476;2023-04-07T11:38:53;101764.25;;;9.85;81.43
72921;BME280;61064;51.654;5.476;2023-04-07T11:41:18;101780.50;;;9.97;81.63
72921;BME280;61064;51.654;5.476;2023-04-07T11:43:44;101800.13;;;10.02;81.38
72921;BME280;61064;51.654;5.476;2023-04-07T11:46:14;101787.72;;;10.02;81.52
72921;BME280;61064;51.654;5.476;2023-04-07T11:48:43;101831.09;;;10.36;81.31
72921;BME280;61064;51.654;5.476;2023-04-07T11:51:16;101832.03;;;10.39;81.20
72921;BME280;61064;51.654;5.476;2023-04-07T11:53:42;101780.75;;;10.08;80.84
72921;BME280;61064;51.654;5.476;2023-04-07T11:56:12;101840.97;;;10.41;80.78
72921;BME280;61064;51.654;5.476;2023-04-07T11:58:51;101784.38;;;10.11;80.63
72921;BME280;61064;51.654;5.476;2023-04-07T12:01:16;101815.69;;;10.23;80.75
72921;BME280;61064;51.654;5.476;2023-04-07T12:03:56;101832.00;;;10.36;80.78
72921;BME280;61064;51.654;5.476;2023-04-07T12:08:53;101796.19;;;10.22;80.51
72921;BME280;61064;51.654;5.476;2023-04-07T12:11:18;101860.84;;;10.57;80.34
72921;BME280;61064;51.654;5.476;2023-04-07T12:13:44;101834.91;;;10.47;80.37
72921;BME280;61064;51.654;5.476;2023-04-07T12:16:09;101859.13;;;10.61;80.21
72921;BME280;61064;51.654;5.476;2023-04-07T12:18:35;101835.81;;;10.49;80.03
72921;BME280;61064;51.654;5.476;2023-04-07T12:21:01;101842.06;;;10.51;80.33
72921;BME280;61064;51.654;5.476;2023-04-07T12:23:26;101803.59;;;10.35;80.13
72921;BME280;61064;51.654;5.476;2023-04-07T12:25:52;101852.19;;;10.67;80.37
72921;BME280;61064;51.654;5.476;2023-04-07T12:28:17;101664.41;;;9.58;80.04
72921;BME280;61064;51.654;5.476;2023-04-07T12:30:43;101730.09;;;10.01;79.87
72921;BME280;61064;51.654;5.476;2023-04-07T12:33:08;101765.22;;;10.26;80.36
72921;BME280;61064;51.654;5.476;2023-04-07T12:35:34;101799.41;;;10.48;80.11
72921;BME280;61064;51.654;5.476;2023-04-07T12:37:59;101840.72;;;10.71;79.74
72921;BME280;61064;51.654;5.476;2023-04-07T12:40:24;101750.94;;;10.21;79.63
72921;BME280;61064;51.654;5.476;2023-04-07T12:42:50;101720.31;;;10.00;79.66
72921;BME280;61064;51.654;5.476;2023-04-07T12:45:16;101757.72;;;10.10;79.60
72921;BME280;61064;51.654;5.476;2023-04-07T12:47:43;101757.72;;;10.10;79.92
72921;BME280;61064;51.654;5.476;2023-04-07T12:50:09;101686.00;;;9.72;79.93
72921;BME280;61064;51.654;5.476;2023-04-07T12:52:35;101675.50;;;9.78;79.90
72921;BME280;61064;51.654;5.476;2023-04-07T12:55:01;101880.25;;;10.94;79.79
72921;BME280;61064;51.654;5.476;2023-04-07T12:57:27;101895.25;;;10.89;79.50
72921;BME280;61064;51.654;5.476;2023-04-07T12:59:53;101878.09;;;10.74;79.34
72921;BME280;61064;51.654;5.476;2023-04-07T13:02:19;101828.66;;;10.47;79.33
72921;BME280;61064;51.654;5.476;2023-04-07T13:04:45;101817.03;;;10.41;79.40
72921;BME280;61064;51.654;5.476;2023-04-07T13:07:11;101865.53;;;10.69;79.54
72921;BME280;61064;51.654;5.476;2023-04-07T13:09:37;101789.16;;;10.26;79.40
72921;BME280;61064;51.654;5.476;2023-04-07T13:12:03;101848.56;;;10.64;79.57
72921;BME280;61064;51.654;5.476;2023-04-07T13:14:28;101847.59;;;10.60;79.30
72921;BME280;61064;51.654;5.476;2023-04-07T13:16:53;101844.00;;;10.58;79.19
72921;BME280;61064;51.654;5.476;2023-04-07T13:19:19;101889.88;;;10.87;79.37